Terminal Aerodrome Forecast
Issued by NWS

Home | Current Version | Previous Version | Text Only | Print | Product List | Glossary On
Versions: 1 2 3 4 5 6 7 8 9 10 11 12 13 14
000
FTUS45 KGJT 181740
TAFTEX
TAF
KTEX 181740Z 1818/1918 26007KT P6SM FEW060 BKN250
     FM181900 23010G20KT P6SM SCT060 BKN250
     FM190600 18010G16KT P6SM OVC080
     FM190800 20008KT P6SM VCSH OVC050
     FM190900 20006KT P6SM -RASN OVC040
     FM191500 22006KT P6SM VCSH OVC050=

USA.gov is the U.S. government's official web portal to all federal, state and local government web resources and services.